Time;durP1;ratioP1;P1;durP2;ratioP2;P2;SDS_P1;SDS_P2;PMS_P1;PMS_P2;Temp;Humidity;BMP_temperature;BMP_pressure;BME280_temperature;BME280_humidity;BME280_pressure;Samples;Min_cycle;Max_cycle;Signal;HPM_P1;HPM_P2
2021/09/25 00:01:16;;;;;;;22.95;18.60;;;17.60;99.90;;;;;;4992307;28;20385;-79
2021/09/25 00:03:42;;;;;;;20.70;18.57;;;17.60;99.90;;;;;;4991588;28;20430;-81
2021/09/25 00:06:08;;;;;;;24.20;19.20;;;17.70;99.90;;;;;;4991683;28;20436;-80
2021/09/25 00:08:35;;;;;;;20.95;18.65;;;17.70;99.90;;;;;;4991999;28;20466;-86
2021/09/25 00:11:01;;;;;;;20.17;18.13;;;17.60;99.90;;;;;;4991715;28;20488;-80
2021/09/25 00:13:27;;;;;;;22.63;17.42;;;17.70;99.90;;;;;;4991100;28;20463;-79
2021/09/25 00:15:52;;;;;;;19.97;17.97;;;17.60;99.90;;;;;;4990769;28;21517;-81
2021/09/25 00:18:18;;;;;;;20.55;18.42;;;17.70;99.90;;;;;;4980985;28;20888;-80
2021/09/25 00:20:43;;;;;;;20.37;18.17;;;17.70;99.90;;;;;;4983160;28;20411;-80
2021/09/25 00:23:09;;;;;;;20.90;18.08;;;17.80;99.90;;;;;;4982806;28;20402;-86
2021/09/25 00:25:35;;;;;;;20.63;18.40;;;17.80;99.90;;;;;;4981963;28;20445;-84
2021/09/25 00:28:00;;;;;;;24.13;18.30;;;17.70;99.90;;;;;;4983447;28;20373;-86
2021/09/25 00:30:26;;;;;;;20.70;18.60;;;17.70;99.90;;;;;;4983040;28;20396;-81
2021/09/25 00:32:52;;;;;;;20.50;18.50;;;17.70;99.90;;;;;;4982137;28;20469;-82
2021/09/25 00:35:19;;;;;;;20.58;18.45;;;17.70;99.90;;;;;;4983411;28;20473;-84
2021/09/25 00:37:45;;;;;;;20.98;18.77;;;17.60;99.90;;;;;;4982275;28;20419;-79
2021/09/25 00:40:14;;;;;;;19.38;17.40;;;17.60;99.90;;;;;;4979346;28;20378;-81
2021/09/25 00:42:40;;;;;;;21.40;18.20;;;17.60;99.90;;;;;;4955844;28;20481;-81
2021/09/25 00:45:07;;;;;;;19.98;18.00;;;17.60;99.90;;;;;;4956478;28;20481;-82
2021/09/25 00:47:33;;;;;;;19.92;17.83;;;17.70;99.90;;;;;;4973854;28;20390;-83
2021/09/25 00:49:59;;;;;;;19.23;17.30;;;17.70;99.90;;;;;;4972473;28;20399;-79
2021/09/25 00:52:25;;;;;;;20.40;18.23;;;17.80;99.90;;;;;;4972491;28;20394;-81
2021/09/25 00:54:50;;;;;;;21.73;18.45;;;17.70;99.90;;;;;;4972599;28;20386;-84
2021/09/25 00:57:17;;;;;;;22.93;17.93;;;17.70;99.90;;;;;;4972894;28;20448;-81
2021/09/25 00:59:43;;;;;;;19.42;17.50;;;17.70;99.90;;;;;;4973372;28;20453;-77
2021/09/25 01:02:11;;;;;;;19.98;17.83;;;17.70;99.90;;;;;;4972723;28;20441;-81
2021/09/25 01:04:37;;;;;;;21.10;18.65;;;17.70;99.90;;;;;;4972899;28;20387;-78
2021/09/25 01:07:04;;;;;;;22.85;18.30;;;17.60;99.90;;;;;;4973083;28;20397;-83
2021/09/25 01:09:30;;;;;;;21.20;18.33;;;17.50;99.90;;;;;;4972846;28;20370;-79
2021/09/25 01:11:56;;;;;;;19.87;17.77;;;17.60;99.90;;;;;;4955612;28;20414;-85
2021/09/25 01:14:22;;;;;;;19.38;17.38;;;17.60;99.90;;;;;;4972624;28;20382;-82
2021/09/25 01:16:47;;;;;;;21.70;18.77;;;17.60;99.90;;;;;;4972777;28;20391;-79
2021/09/25 01:19:14;;;;;;;21.15;18.92;;;17.60;99.90;;;;;;4972434;28;20794;-82
2021/09/25 01:21:39;;;;;;;20.58;18.38;;;17.60;99.90;;;;;;4972735;28;20379;-79
2021/09/25 01:24:05;;;;;;;20.50;18.38;;;17.60;99.90;;;;;;4972538;28;20440;-79
2021/09/25 01:26:31;;;;;;;20.10;18.00;;;17.60;99.90;;;;;;4955184;28;20390;-87
2021/09/25 01:28:57;;;;;;;20.60;18.50;;;17.60;99.90;;;;;;4972644;28;20447;-84
2021/09/25 01:31:22;;;;;;;21.50;19.20;;;17.50;99.90;;;;;;4972564;28;21172;-83
2021/09/25 01:33:50;;;;;;;21.10;18.67;;;17.40;99.90;;;;;;4972456;28;20401;-79
2021/09/25 01:36:17;;;;;;;21.38;18.65;;;17.50;99.90;;;;;;4971029;28;20379;-80
2021/09/25 01:38:44;;;;;;;20.15;18.15;;;17.40;99.90;;;;;;4972206;28;20383;-81
2021/09/25 01:41:11;;;;;;;21.17;18.17;;;17.50;99.90;;;;;;4972583;28;20410;-79
2021/09/25 01:43:36;;;;;;;22.60;18.75;;;17.50;99.90;;;;;;4972386;28;20419;-79
2021/09/25 01:46:03;;;;;;;20.10;18.20;;;17.50;99.90;;;;;;4972446;28;20948;-86
2021/09/25 01:48:28;;;;;;;19.63;17.52;;;17.60;99.90;;;;;;4971959;28;20936;-78
2021/09/25 01:50:54;;;;;;;22.00;18.47;;;17.60;99.90;;;;;;4972174;28;20387;-79
2021/09/25 01:53:24;;;;;;;22.17;18.13;;;17.60;99.90;;;;;;4972113;28;20394;-80
2021/09/25 01:55:50;;;;;;;21.10;18.90;;;17.60;99.90;;;;;;4970772;28;20386;-78
2021/09/25 01:58:15;;;;;;;20.30;18.02;;;17.50;99.90;;;;;;4971856;28;20907;-82
2021/09/25 02:00:41;;;;;;;21.37;19.13;;;17.60;99.90;;;;;;4971794;28;20387;-81
2021/09/25 02:03:09;;;;;;;23.15;19.63;;;17.50;99.90;;;;;;4971409;28;20410;-82
2021/09/25 02:05:35;;;;;;;21.90;18.23;;;17.50;99.90;;;;;;4970374;28;20426;-80
2021/09/25 02:08:03;;;;;;;19.63;17.60;;;17.40;99.90;;;;;;4954196;28;20900;-80
2021/09/25 02:10:28;;;;;;;20.20;18.25;;;17.40;99.90;;;;;;4954202;28;20826;-83
2021/09/25 02:12:54;;;;;;;18.85;16.95;;;17.50;99.90;;;;;;4953479;28;20470;-82
2021/09/25 02:15:19;;;;;;;20.57;17.47;;;17.60;99.90;;;;;;4971395;28;20941;-82
2021/09/25 02:17:45;;;;;;;19.80;17.80;;;17.50;99.90;;;;;;4971701;28;20383;-87
2021/09/25 02:20:12;;;;;;;20.53;17.50;;;17.60;99.90;;;;;;4971649;28;20382;-79
2021/09/25 02:22:39;;;;;;;20.25;18.23;;;17.60;99.90;;;;;;4971686;28;20461;-81
2021/09/25 02:25:07;;;;;;;19.92;17.27;;;17.60;99.90;;;;;;4971559;28;20473;-83
2021/09/25 02:27:32;;;;;;;19.55;17.45;;;17.60;99.90;;;;;;4971355;28;20445;-81
2021/09/25 02:29:58;;;;;;;21.38;18.13;;;17.50;99.90;;;;;;4971544;28;20375;-84
2021/09/25 02:32:24;;;;;;;19.85;17.75;;;17.50;99.90;;;;;;4970982;28;20381;-78
2021/09/25 02:34:50;;;;;;;20.13;18.10;;;17.60;99.90;;;;;;4954145;28;20395;-80
2021/09/25 02:37:15;;;;;;;20.30;18.10;;;17.50;99.90;;;;;;4970935;28;20864;-81
2021/09/25 02:39:41;;;;;;;19.83;17.73;;;17.60;99.90;;;;;;4971081;28;20387;-82
2021/09/25 02:42:06;;;;;;;20.73;18.38;;;17.50;99.90;;;;;;4971253;28;20753;-81
2021/09/25 02:44:32;;;;;;;20.07;17.13;;;17.60;99.90;;;;;;4970934;28;20379;-77
2021/09/25 02:46:59;;;;;;;20.02;18.02;;;17.50;99.90;;;;;;4971030;28;20414;-77
2021/09/25 02:49:24;;;;;;;20.37;18.37;;;17.40;99.90;;;;;;4971466;28;20378;-84
2021/09/25 02:51:51;;;;;;;20.33;18.13;;;17.40;99.90;;;;;;4971114;28;20403;-80
2021/09/25 02:54:17;;;;;;;20.20;18.10;;;17.30;99.90;;;;;;4971323;28;20526;-82
2021/09/25 02:56:43;;;;;;;20.30;18.15;;;17.40;99.90;;;;;;4971039;28;20474;-78
2021/09/25 02:59:08;;;;;;;21.40;18.63;;;17.30;99.90;;;;;;4953253;28;20390;-79
2021/09/25 03:01:34;;;;;;;20.88;18.77;;;17.30;99.90;;;;;;4971310;28;20386;-81
2021/09/25 03:03:59;;;;;;;19.47;17.50;;;17.40;99.90;;;;;;4970661;28;20406;-79
2021/09/25 03:06:26;;;;;;;19.40;17.40;;;17.50;99.90;;;;;;4970525;28;20386;-80
2021/09/25 03:08:53;;;;;;;21.20;18.00;;;17.40;99.90;;;;;;4970578;28;20410;-80
2021/09/25 03:11:19;;;;;;;20.50;17.23;;;17.40;99.90;;;;;;4970703;28;20374;-80
2021/09/25 03:13:45;;;;;;;18.85;16.95;;;17.50;99.90;;;;;;4953443;28;20801;-80
2021/09/25 03:16:12;;;;;;;19.80;17.67;;;17.50;99.90;;;;;;4970554;28;20379;-82
2021/09/25 03:18:38;;;;;;;19.92;17.85;;;17.40;99.90;;;;;;4970433;28;20762;-83
2021/09/25 03:21:03;;;;;;;19.17;17.17;;;17.40;99.90;;;;;;4970361;28;20477;-81
2021/09/25 03:23:29;;;;;;;19.50;16.98;;;17.40;99.90;;;;;;4970338;28;20425;-81
2021/09/25 03:25:54;;;;;;;20.63;17.83;;;17.40;99.90;;;;;;4970207;28;20961;-79
2021/09/25 03:28:20;;;;;;;18.40;16.23;;;17.40;99.90;;;;;;4969985;28;20379;-83
2021/09/25 03:30:46;;;;;;;18.67;16.70;;;17.50;99.90;;;;;;4952924;28;20387;-83
2021/09/25 03:33:11;;;;;;;17.60;15.80;;;17.50;99.90;;;;;;4969932;28;20390;-84
2021/09/25 03:35:39;;;;;;;18.42;16.23;;;17.50;99.90;;;;;;4970388;28;20810;-79
2021/09/25 03:38:05;;;;;;;19.57;17.10;;;17.40;99.90;;;;;;4968980;28;20387;-81
2021/09/25 03:40:31;;;;;;;21.50;17.20;;;17.30;99.90;;;;;;4970142;28;20442;-80
2021/09/25 03:42:56;;;;;;;19.20;16.95;;;17.20;99.90;;;;;;4969824;28;20408;-78
2021/09/25 03:45:22;;;;;;;21.10;18.40;;;17.30;99.90;;;;;;4969723;28;20395;-80
2021/09/25 03:47:49;;;;;;;20.65;18.42;;;17.10;99.90;;;;;;4970284;28;20379;-79
2021/09/25 03:50:14;;;;;;;21.98;18.02;;;17.20;99.90;;;;;;4953105;28;20577;-80
2021/09/25 03:52:40;;;;;;;21.88;19.45;;;17.30;99.90;;;;;;4970316;28;20819;-78
2021/09/25 03:55:07;;;;;;;21.87;19.57;;;17.10;99.90;;;;;;4969986;28;20382;-79
2021/09/25 03:57:33;;;;;;;21.77;18.80;;;17.10;99.90;;;;;;4969606;28;20473;-80
2021/09/25 03:59:59;;;;;;;21.87;18.80;;;17.10;99.90;;;;;;4970073;28;20378;-79
2021/09/25 04:02:25;;;;;;;22.60;19.90;;;17.00;99.90;;;;;;4969497;28;20445;-77
2021/09/25 04:04:50;;;;;;;20.48;17.85;;;17.00;99.90;;;;;;4969975;28;20793;-80
2021/09/25 04:07:16;;;;;;;23.50;21.00;;;17.20;99.90;;;;;;4969656;28;20755;-77
2021/09/25 04:09:41;;;;;;;26.58;20.42;;;17.10;99.90;;;;;;4969944;28;20758;-80
2021/09/25 04:12:07;;;;;;;24.30;20.67;;;17.10;99.90;;;;;;4952036;28;20418;-79
2021/09/25 04:14:33;;;;;;;25.98;20.85;;;17.00;99.90;;;;;;4969986;28;20880;-78
2021/09/25 04:16:58;;;;;;;23.43;20.43;;;17.00;99.90;;;;;;4969491;28;20513;-80
2021/09/25 04:19:25;;;;;;;24.08;21.33;;;17.00;99.90;;;;;;4952355;28;20978;-79
2021/09/25 04:21:50;;;;;;;26.20;21.90;;;16.90;99.90;;;;;;4952211;28;20405;-79
2021/09/25 04:24:16;;;;;;;23.85;21.27;;;17.00;99.90;;;;;;4969484;28;20391;-79
2021/09/25 04:26:41;;;;;;;24.53;21.63;;;17.00;99.90;;;;;;4969584;28;20443;-81
2021/09/25 04:29:07;;;;;;;29.55;21.88;;;17.00;99.90;;;;;;4969457;28;20806;-80
2021/09/25 04:31:35;;;;;;;26.20;21.23;;;16.90;99.90;;;;;;4969616;28;20391;-76
2021/09/25 04:34:02;;;;;;;27.25;23.50;;;16.90;99.90;;;;;;4952357;28;20482;-77
2021/09/25 04:36:28;;;;;;;23.42;20.92;;;16.90;99.90;;;;;;4971248;28;20487;-80
2021/09/25 04:38:54;;;;;;;25.40;22.00;;;16.90;99.90;;;;;;4973118;28;20394;-80
2021/09/25 04:41:20;;;;;;;25.17;22.48;;;16.90;99.90;;;;;;4972910;28;20477;-80
2021/09/25 04:43:45;;;;;;;25.90;22.00;;;16.80;99.90;;;;;;4972879;28;20398;-80
2021/09/25 04:46:11;;;;;;;23.98;21.00;;;16.80;99.90;;;;;;4972701;28;20391;-82
2021/09/25 04:48:37;;;;;;;25.23;21.60;;;16.80;99.90;;;;;;4972791;28;20383;-81
2021/09/25 04:51:03;;;;;;;22.25;19.95;;;16.80;99.90;;;;;;4971606;28;20387;-78
2021/09/25 04:53:30;;;;;;;24.23;20.77;;;16.90;99.90;;;;;;4972895;28;20487;-80
2021/09/25 04:55:57;;;;;;;23.95;19.67;;;16.90;99.90;;;;;;4972646;28;20417;-81
2021/09/25 04:58:28;;;;;;;22.80;19.67;;;16.90;99.90;;;;;;4971224;28;20880;-78
2021/09/25 05:00:55;;;;;;;22.63;19.83;;;16.90;99.90;;;;;;4972760;28;20449;-80
2021/09/25 05:03:20;;;;;;;24.05;21.15;;;16.90;99.90;;;;;;4972623;28;20410;-79
2021/09/25 05:05:46;;;;;;;22.40;19.42;;;16.90;99.90;;;;;;4972644;28;20385;-79
2021/09/25 05:08:12;;;;;;;23.40;19.77;;;16.90;99.90;;;;;;4972543;28;20397;-79
2021/09/25 05:10:37;;;;;;;26.53;19.87;;;16.90;99.90;;;;;;4972626;28;20493;-78
2021/09/25 05:13:03;;;;;;;25.07;19.73;;;16.80;99.90;;;;;;4972620;28;20386;-81
2021/09/25 05:15:28;;;;;;;22.77;19.23;;;16.80;99.90;;;;;;4972402;28;20370;-78
2021/09/25 05:17:54;;;;;;;20.93;18.73;;;16.90;99.90;;;;;;4972397;28;20434;-82
2021/09/25 05:20:20;;;;;;;23.42;20.92;;;16.90;99.90;;;;;;4972745;28;20463;-80
2021/09/25 05:22:45;;;;;;;23.33;19.47;;;16.90;99.90;;;;;;4954942;28;20407;-79
2021/09/25 05:25:11;;;;;;;26.02;20.48;;;16.90;99.90;;;;;;4972058;28;20462;-79
2021/09/25 05:27:37;;;;;;;23.48;20.02;;;16.80;99.90;;;;;;4972393;28;20901;-79
2021/09/25 05:30:04;;;;;;;22.83;18.97;;;16.80;99.90;;;;;;4972522;28;20470;-80
2021/09/25 05:32:30;;;;;;;23.15;19.13;;;16.90;99.90;;;;;;4972098;28;20422;-78
2021/09/25 05:34:56;;;;;;;21.50;18.73;;;16.90;99.90;;;;;;4972419;28;20759;-83
2021/09/25 05:37:21;;;;;;;25.60;18.25;;;16.90;99.90;;;;;;4972243;28;20383;-81
2021/09/25 05:39:47;;;;;;;22.83;17.25;;;16.90;99.90;;;;;;4971915;28;20390;-80
2021/09/25 05:42:14;;;;;;;22.53;18.23;;;17.00;99.90;;;;;;4971974;28;20904;-79
2021/09/25 05:44:44;;;;;;;21.90;18.67;;;17.00;99.90;;;;;;4954711;28;20923;-81
2021/09/25 05:47:11;;;;;;;22.58;18.45;;;17.00;99.90;;;;;;4970639;28;20375;-83
2021/09/25 05:49:36;;;;;;;22.98;18.98;;;17.00;99.90;;;;;;4971860;28;20482;-79
2021/09/25 05:52:03;;;;;;;20.80;18.40;;;17.00;99.90;;;;;;4971421;28;20823;-78
2021/09/25 05:54:28;;;;;;;19.75;17.65;;;17.10;99.90;;;;;;4972050;28;20394;-81
2021/09/25 05:56:54;;;;;;;20.10;17.83;;;17.20;99.90;;;;;;4971730;28;20477;-85
2021/09/25 05:59:19;;;;;;;19.37;17.07;;;17.20;99.90;;;;;;4971717;28;20390;-77
2021/09/25 06:01:45;;;;;;;19.70;17.60;;;17.30;99.90;;;;;;4971808;28;20892;-83
2021/09/25 06:04:11;;;;;;;23.43;18.50;;;17.30;99.90;;;;;;4971776;28;20852;-80
2021/09/25 06:06:36;;;;;;;22.23;18.13;;;17.20;99.90;;;;;;4971666;28;20445;-79
2021/09/25 06:09:02;;;;;;;21.50;18.97;;;17.30;99.90;;;;;;4970016;28;20385;-78
2021/09/25 06:11:27;;;;;;;22.45;19.23;;;17.30;99.90;;;;;;4971687;28;20469;-80
2021/09/25 06:13:53;;;;;;;24.23;19.97;;;17.20;99.90;;;;;;4971162;28;20410;-80
2021/09/25 06:16:18;;;;;;;23.45;19.83;;;17.20;99.90;;;;;;4954244;28;20515;-79
2021/09/25 06:18:44;;;;;;;20.33;18.13;;;17.30;99.90;;;;;;4971219;28;20951;-83
2021/09/25 06:21:09;;;;;;;23.55;18.17;;;17.30;99.90;;;;;;4953808;28;20395;-81
2021/09/25 06:23:35;;;;;;;20.80;18.37;;;17.40;99.90;;;;;;4953744;28;20414;-81
2021/09/25 06:26:01;;;;;;;28.38;18.60;;;17.50;99.90;;;;;;4971255;28;20441;-82
2021/09/25 06:28:26;;;;;;;22.47;18.13;;;17.50;99.90;;;;;;4970888;28;21007;-79
2021/09/25 06:30:52;;;;;;;21.58;18.35;;;17.50;99.90;;;;;;4971267;28;20386;-80
2021/09/25 06:33:17;;;;;;;19.10;17.10;;;17.60;99.90;;;;;;4970946;28;20473;-81
2021/09/25 06:35:43;;;;;;;20.27;17.10;;;17.60;99.90;;;;;;4971090;28;20737;-81
2021/09/25 06:38:09;;;;;;;19.10;15.45;;;17.70;99.90;;;;;;4970903;28;20831;-78
2021/09/25 06:40:35;;;;;;;18.17;16.23;;;17.80;99.90;;;;;;4971116;28;20418;-80
2021/09/25 06:43:03;;;;;;;18.85;16.63;;;17.90;99.90;;;;;;4953745;28;20912;-78
2021/09/25 06:45:32;;;;;;;19.85;16.45;;;17.90;99.90;;;;;;4971002;28;20387;-82
2021/09/25 06:47:58;;;;;;;19.45;16.08;;;17.80;99.90;;;;;;4970908;28;20402;-81
2021/09/25 06:50:25;;;;;;;19.42;15.60;;;17.90;99.90;;;;;;4970604;28;20379;-83
2021/09/25 06:52:50;;;;;;;17.40;15.55;;;18.00;99.90;;;;;;4970617;28;20379;-80
2021/09/25 06:55:16;;;;;;;19.30;15.27;;;18.10;99.90;;;;;;4970806;28;20385;-79
2021/09/25 06:57:41;;;;;;;18.20;15.33;;;18.30;99.90;;;;;;4970545;28;20721;-84
2021/09/25 07:00:08;;;;;;;16.52;14.80;;;18.60;99.90;;;;;;4970647;28;20379;-83
2021/09/25 07:02:40;;;;;;;22.05;15.10;;;18.70;99.90;;;;;;4953399;28;20422;-78
2021/09/25 07:05:07;;;;;;;15.83;14.13;;;18.90;99.90;;;;;;4970737;28;20532;-82
2021/09/25 07:07:33;;;;;;;16.23;14.52;;;18.80;99.90;;;;;;4970677;28;20481;-82
2021/09/25 07:09:58;;;;;;;19.43;14.57;;;18.80;99.90;;;;;;4970617;28;20378;-79
2021/09/25 07:12:25;;;;;;;24.67;15.35;;;18.70;99.90;;;;;;4953236;28;20420;-77
2021/09/25 07:14:51;;;;;;;18.80;14.87;;;18.70;99.90;;;;;;4969541;28;20482;-80
2021/09/25 07:17:17;;;;;;;18.73;14.90;;;18.50;99.90;;;;;;4970206;28;20379;-79
2021/09/25 07:19:43;;;;;;;15.20;13.27;;;18.70;99.90;;;;;;4970361;28;20379;-79
2021/09/25 07:22:08;;;;;;;16.92;14.38;;;18.80;99.90;;;;;;4970476;28;20454;-79
2021/09/25 07:24:36;;;;;;;16.47;14.17;;;18.90;99.90;;;;;;4970103;28;20382;-81
2021/09/25 07:27:02;;;;;;;16.17;14.27;;;18.90;99.90;;;;;;4970360;28;20473;-77
2021/09/25 07:29:28;;;;;;;17.83;14.88;;;19.00;99.90;;;;;;4970355;28;20470;-81
2021/09/25 07:31:53;;;;;;;17.87;14.63;;;18.90;99.90;;;;;;4952864;28;20489;-78
2021/09/25 07:34:19;;;;;;;18.42;14.30;;;19.00;99.90;;;;;;4970239;28;20383;-80
2021/09/25 07:36:45;;;;;;;18.67;15.80;;;18.90;99.90;;;;;;4969553;28;20390;-83
2021/09/25 07:39:10;;;;;;;17.73;15.85;;;18.70;99.90;;;;;;4968255;28;20382;-80
2021/09/25 07:41:39;;;;;;;17.77;15.83;;;18.70;99.90;;;;;;4970479;28;21355;-80
2021/09/25 07:44:05;;;;;;;17.50;15.70;;;18.80;99.90;;;;;;4987507;28;20408;-83
2021/09/25 07:46:31;;;;;;;21.42;17.67;;;18.80;99.90;;;;;;4987848;28;20430;-77
2021/09/25 07:48:59;;;;;;;18.88;16.88;;;18.90;99.90;;;;;;4988014;28;20803;-82
2021/09/25 07:51:25;;;;;;;22.73;16.08;;;19.00;99.90;;;;;;4987696;28;20403;-79
2021/09/25 07:53:51;;;;;;;18.08;16.05;;;19.00;99.90;;;;;;4989351;28;20452;-80
2021/09/25 07:56:17;;;;;;;18.23;15.38;;;19.00;99.90;;;;;;4988092;28;20503;-81
2021/09/25 07:58:43;;;;;;;18.33;14.83;;;19.00;99.90;;;;;;4988597;28;20415;-78
2021/09/25 08:01:08;;;;;;;17.45;15.55;;;19.10;99.90;;;;;;4989070;28;20415;-81
2021/09/25 08:03:34;;;;;;;17.90;15.27;;;19.20;99.90;;;;;;4989178;28;20447;-82
2021/09/25 08:06:03;;;;;;;20.40;17.85;;;19.10;99.90;;;;;;4988768;28;20408;-81
2021/09/25 08:08:28;;;;;;;20.80;18.60;;;18.90;99.90;;;;;;4989104;28;20384;-79
2021/09/25 08:10:54;;;;;;;20.95;18.75;;;18.70;99.90;;;;;;4989736;28;20878;-79
2021/09/25 08:13:19;;;;;;;20.03;18.03;;;18.60;99.90;;;;;;4975713;28;20395;-78
2021/09/25 08:15:45;;;;;;;30.10;19.40;;;18.60;99.90;;;;;;4991420;28;20487;-83
2021/09/25 08:18:11;;;;;;;20.77;18.67;;;18.60;99.90;;;;;;4992791;28;20384;-82
2021/09/25 08:20:36;;;;;;;19.70;17.65;;;18.80;99.90;;;;;;4993275;28;20380;-80
2021/09/25 08:23:02;;;;;;;18.60;16.27;;;19.00;99.90;;;;;;4975021;28;20433;-79
2021/09/25 08:25:28;;;;;;;18.17;16.23;;;19.30;99.90;;;;;;4992462;28;20397;-85
2021/09/25 08:27:53;;;;;;;17.47;15.57;;;19.50;99.90;;;;;;4991605;28;20385;-79
2021/09/25 08:30:20;;;;;;;19.35;16.35;;;19.60;99.90;;;;;;4990550;28;20384;-84
2021/09/25 08:32:47;;;;;;;18.77;16.77;;;19.80;99.90;;;;;;4992472;28;20404;-85
2021/09/25 08:35:12;;;;;;;18.08;16.15;;;19.70;99.90;;;;;;4992286;28;20898;-83
2021/09/25 08:37:39;;;;;;;18.03;16.23;;;19.80;99.90;;;;;;4992844;28;20484;-81
2021/09/25 08:40:08;;;;;;;19.58;17.50;;;19.70;99.90;;;;;;4992744;28;20381;-83
2021/09/25 08:42:34;;;;;;;18.15;15.68;;;19.80;99.90;;;;;;4989695;28;20463;-84
2021/09/25 08:45:03;;;;;;;19.10;16.50;;;19.80;99.90;;;;;;4992467;28;20475;-81
2021/09/25 08:47:32;;;;;;;62.30;33.70;;;19.90;99.90;;;;;;4987046;28;20381;-82
2021/09/25 08:49:58;;;;;;;26.10;18.90;;;19.90;99.90;;;;;;4983346;28;20407;-80
2021/09/25 08:52:24;;;;;;;22.08;16.75;;;20.00;99.90;;;;;;4985818;28;21526;-80
2021/09/25 08:54:52;;;;;;;20.70;17.00;;;20.10;99.90;;;;;;4982429;28;20389;-79
2021/09/25 08:57:18;;;;;;;27.60;19.48;;;20.10;99.90;;;;;;4981220;28;20389;-78
2021/09/25 08:59:44;;;;;;;23.83;18.20;;;20.10;99.90;;;;;;4967283;28;20498;-85
2021/09/25 09:02:15;;;;;;;20.08;16.88;;;19.90;99.90;;;;;;4981834;28;20462;-80
2021/09/25 09:04:59;;;;;;;18.20;16.33;;;19.70;99.90;;;;;;4988973;28;20416;-79
2021/09/25 09:07:29;;;;;;;18.25;15.32;;;19.60;99.90;;;;;;4981847;28;20386;-81
2021/09/25 09:09:57;;;;;;;19.23;16.33;;;19.60;99.90;;;;;;4986257;28;20408;-78
2021/09/25 09:12:25;;;;;;;21.37;16.67;;;19.40;99.90;;;;;;4984390;28;20941;-81
2021/09/25 09:14:52;;;;;;;19.47;17.47;;;19.30;99.90;;;;;;4984285;28;20791;-81
2021/09/25 09:17:26;;;;;;;20.38;18.38;;;19.10;99.90;;;;;;4981142;28;20377;-81
2021/09/25 09:19:52;;;;;;;21.73;19.73;;;19.10;99.90;;;;;;4983546;28;20469;-84
2021/09/25 09:22:20;;;;;;;23.38;21.08;;;19.00;99.90;;;;;;4981979;28;20466;-81
2021/09/25 09:24:48;;;;;;;22.60;20.33;;;19.00;99.90;;;;;;4982633;28;20735;-81
2021/09/25 09:27:19;;;;;;;22.33;20.20;;;19.00;99.90;;;;;;4966806;28;22230;-80
2021/09/25 09:29:45;;;;;;;20.17;18.35;;;19.30;99.90;;;;;;4995582;28;20428;-80
2021/09/25 09:32:12;;;;;;;18.88;16.95;;;19.60;99.90;;;;;;4967357;28;20858;-80
2021/09/25 09:34:40;;;;;;;20.35;18.20;;;19.80;99.90;;;;;;4958500;28;20903;-85
2021/09/25 09:37:19;;;;;;;19.08;17.08;;;20.00;99.90;;;;;;4982764;28;21418;-84
2021/09/25 09:40:01;;;;;;;18.20;16.38;;;20.00;99.90;;;;;;4976548;28;21752;-80
2021/09/25 09:42:54;;;;;;;16.37;14.77;;;20.10;99.90;;;;;;4981637;28;20401;-83
2021/09/25 09:45:31;;;;;;;21.77;15.60;;;20.00;99.90;;;;;;4974490;28;20479;-80
2021/09/25 09:47:58;;;;;;;16.48;14.68;;;20.00;99.90;;;;;;4981375;28;20388;-81
2021/09/25 09:50:24;;;;;;;16.00;14.48;;;19.90;99.90;;;;;;4981224;28;20401;-78
2021/09/25 09:52:52;;;;;;;18.75;14.30;;;20.00;99.90;;;;;;4994026;28;20452;-81
2021/09/25 09:55:24;;;;;;;16.17;14.63;;;19.90;99.90;;;;;;4973049;28;20402;-81
2021/09/25 09:58:05;;;;;;;15.13;13.73;;;20.10;99.90;;;;;;4984363;28;20386;-81
2021/09/25 10:00:32;;;;;;;17.17;13.10;;;20.30;99.90;;;;;;4979601;28;20389;-79
2021/09/25 10:02:59;;;;;;;13.52;12.18;;;20.60;99.90;;;;;;4983078;28;21222;-81
2021/09/25 10:05:26;;;;;;;12.80;11.55;;;20.90;99.90;;;;;;4982222;28;20379;-81
2021/09/25 10:07:52;;;;;;;16.80;10.18;;;21.00;99.90;;;;;;4992975;28;20399;-81
2021/09/25 10:10:17;;;;;;;10.93;9.43;;;21.40;99.90;;;;;;4991687;28;20377;-80
2021/09/25 10:12:44;;;;;;;9.82;8.73;;;21.80;99.90;;;;;;4983800;28;20879;-80
2021/09/25 10:15:11;;;;;;;10.65;9.55;;;22.00;99.90;;;;;;4974741;28;20438;-80
2021/09/25 10:17:38;;;;;;;12.63;9.32;;;22.00;99.90;;;;;;4985925;28;20675;-85
2021/09/25 10:20:04;;;;;;;9.73;8.73;;;21.60;99.90;;;;;;4978884;28;20398;-82
2021/09/25 10:22:32;;;;;;;9.53;8.67;;;21.10;99.90;;;;;;4966676;28;20910;-81
2021/09/25 10:25:00;;;;;;;9.52;8.60;;;20.70;99.90;;;;;;4983136;28;20412;-82
2021/09/25 10:27:32;;;;;;;8.63;7.70;;;20.50;99.90;;;;;;4982584;28;20384;-79
2021/09/25 10:30:03;;;;;;;8.50;7.70;;;20.80;99.90;;;;;;4985860;28;20417;-82
2021/09/25 10:32:39;;;;;;;8.73;7.18;;;21.30;99.90;;;;;;4983551;28;20416;-80
2021/09/25 10:35:07;;;;;;;9.23;7.20;;;21.80;99.90;;;;;;4990750;28;20376;-79
2021/09/25 10:37:42;;;;;;;8.43;7.00;;;22.40;99.90;;;;;;4982745;28;20751;-78
2021/09/25 10:40:15;;;;;;;8.18;6.45;;;22.60;99.90;;;;;;4984430;28;20393;-80
2021/09/25 10:42:51;;;;;;;7.93;7.20;;;22.50;99.90;;;;;;4988529;28;20448;-79
2021/09/25 10:45:28;;;;;;;8.45;7.63;;;22.40;99.90;;;;;;4966620;28;20389;-85
2021/09/25 10:48:15;;;;;;;8.70;7.57;;;22.20;99.90;;;;;;4983056;28;20432;-81
2021/09/25 10:50:45;;;;;;;8.07;7.10;;;22.00;99.90;;;;;;4984294;28;20405;-82
2021/09/25 10:53:17;;;;;;;8.47;7.67;;;22.10;99.90;;;;;;4984698;28;20739;-81
2021/09/25 10:55:48;;;;;;;8.20;6.82;;;22.20;99.90;;;;;;4982476;28;20388;-83
2021/09/25 10:58:26;;;;;;;8.15;7.40;;;22.20;99.90;;;;;;4991071;28;20700;-81
2021/09/25 11:00:56;;;;;;;7.57;6.70;;;22.40;99.90;;;;;;4980129;28;20892;-81
2021/09/25 11:03:42;;;;;;;12.20;6.38;;;22.40;99.90;;;;;;4979167;28;20420;-81
2021/09/25 11:06:25;;;;;;;8.38;6.53;;;22.40;99.90;;;;;;4984299;28;20409;-82
2021/09/25 11:09:08;;;;;;;7.53;6.72;;;22.50;99.90;;;;;;4970458;28;20503;-84
2021/09/25 11:11:46;;;;;;;9.57;6.60;;;22.40;99.90;;;;;;4984193;28;20480;-87
2021/09/25 11:14:21;;;;;;;10.10;7.20;;;22.40;99.90;;;;;;4981325;28;20382;-85
2021/09/25 11:17:03;;;;;;;12.97;7.67;;;22.10;99.90;;;;;;4985067;28;20450;-81
2021/09/25 11:19:30;;;;;;;13.82;7.40;;;21.90;99.90;;;;;;4980923;28;20484;-80
2021/09/25 11:22:26;;;;;;;8.27;7.20;;;21.80;99.90;;;;;;4983951;28;20376;-82
2021/09/25 11:25:06;;;;;;;10.93;7.37;;;21.80;99.90;;;;;;4984989;28;20397;-84
2021/09/25 11:27:35;;;;;;;7.97;7.18;;;21.80;99.90;;;;;;4985033;28;20412;-83
2021/09/25 11:30:16;;;;;;;8.47;7.50;;;21.90;99.90;;;;;;4972534;28;20495;-80
2021/09/25 11:32:47;;;;;;;13.75;7.60;;;21.70;99.90;;;;;;4982958;28;20950;-78
2021/09/25 11:35:21;;;;;;;8.50;7.00;;;21.80;99.90;;;;;;4982500;28;20874;-82
2021/09/25 11:37:51;;;;;;;7.85;7.05;;;22.00;99.90;;;;;;4980720;28;21201;-82
2021/09/25 11:40:20;;;;;;;9.90;7.70;;;22.10;99.90;;;;;;4980565;28;20423;-82
2021/09/25 11:42:46;;;;;;;8.13;7.13;;;22.10;99.90;;;;;;4980410;28;20942;-80
2021/09/25 11:45:17;;;;;;;12.37;7.47;;;22.00;99.90;;;;;;4984579;28;20535;-78
2021/09/25 11:47:48;;;;;;;7.45;6.75;;;21.90;99.90;;;;;;4989410;28;20419;-81
2021/09/25 11:50:21;;;;;;;6.80;6.20;;;21.80;99.90;;;;;;5000023;28;20401;-83
2021/09/25 11:52:59;;;;;;;6.95;6.10;;;21.80;99.90;;;;;;4983336;28;20905;-82
2021/09/25 11:55:28;;;;;;;6.78;5.57;;;21.70;99.90;;;;;;4987327;28;20449;-82
2021/09/25 11:57:58;;;;;;;8.20;5.32;;;21.60;99.90;;;;;;4984497;28;20914;-81
2021/09/25 12:00:32;;;;;;;5.50;5.00;;;21.40;99.90;;;;;;4997526;28;20907;-84
2021/09/25 12:02:59;;;;;;;6.78;6.18;;;21.50;99.90;;;;;;4982197;28;20410;-81
2021/09/25 12:05:39;;;;;;;6.82;5.90;;;21.60;99.90;;;;;;4969960;28;20763;-80
2021/09/25 12:08:23;;;;;;;6.90;5.75;;;21.50;99.90;;;;;;4996588;28;20732;-79
2021/09/25 12:10:56;;;;;;;6.82;6.13;;;21.80;99.90;;;;;;4983903;28;20393;-81
2021/09/25 12:13:34;;;;;;;9.87;6.80;;;21.90;99.90;;;;;;4980548;28;20404;-81
2021/09/25 12:16:04;;;;;;;7.57;6.28;;;22.00;99.90;;;;;;4981020;28;20394;-80
2021/09/25 12:18:32;;;;;;;10.80;7.10;;;22.10;99.90;;;;;;4978572;28;20532;-81
2021/09/25 12:21:01;;;;;;;9.35;6.55;;;22.20;99.90;;;;;;4981580;28;20499;-79
2021/09/25 12:23:43;;;;;;;7.60;6.82;;;22.20;99.90;;;;;;4980137;28;20410;-80
2021/09/25 12:26:11;;;;;;;11.02;6.75;;;22.30;99.90;;;;;;4983879;28;20447;-80
2021/09/25 12:28:55;;;;;;;6.57;5.97;;;22.40;99.90;;;;;;4977517;28;20424;-78
2021/09/25 12:31:28;;;;;;;8.48;5.68;;;22.60;99.90;;;;;;4979009;28;20384;-80
2021/09/25 12:33:57;;;;;;;6.80;6.10;;;22.60;99.90;;;;;;4979955;28;20398;-80